Time;durP1;ratioP1;P1;durP2;ratioP2;P2;SDS_P1;SDS_P2;PMS_P1;PMS_P2;Temp;Humidity;BMP_temperature;BMP_pressure;BME280_temperature;BME280_humidity;BME280_pressure;Samples;Min_cycle;Max_cycle;Signal;HPM_P1;HPM_P2
2022/06/30 00:01:37;;;;;;;;;0.00;0.00;;;;;21.19;48.53;100746.69;5033202;28;45197;-71
2022/06/30 00:04:03;;;;;;;;;0.00;0.00;;;;;21.02;48.96;100717.13;5033207;28;45583;-73
2022/06/30 00:06:28;;;;;;;;;0.00;0.00;;;;;20.90;48.78;100703.72;5030804;28;45199;-70
2022/06/30 00:08:54;;;;;;;;;0.00;0.00;;;;;20.92;49.09;100740.81;5028647;28;45136;-73
2022/06/30 00:11:20;;;;;;;;;0.00;0.00;;;;;20.91;48.74;100739.00;5024233;28;46218;-71
2022/06/30 00:13:45;;;;;;;;;0.00;0.00;;;;;20.90;49.27;100748.06;5029252;28;46131;-71
2022/06/30 00:16:11;;;;;;;;;0.00;0.00;;;;;20.82;49.57;100741.88;5030740;28;45172;-72
2022/06/30 00:18:37;;;;;;;;;1.00;0.00;;;;;20.60;49.89;100723.16;5030989;28;45468;-71
2022/06/30 00:21:02;;;;;;;;;0.00;0.00;;;;;20.70;50.02;100744.78;5031157;28;44969;-71
2022/06/30 00:23:28;;;;;;;;;0.67;0.67;;;;;20.71;50.57;100758.34;5032117;28;45259;-71
2022/06/30 00:25:54;;;;;;;;;1.00;1.00;;;;;20.51;51.14;100736.91;5032256;28;45182;-71
2022/06/30 00:28:19;;;;;;;;;2.00;1.00;;;;;20.44;50.74;100730.66;5030515;28;46103;-71
2022/06/30 00:30:50;;;;;;;;;2.33;0.00;;;;;20.46;50.76;100732.44;5032681;28;45286;-71
2022/06/30 00:33:15;;;;;;;;;0.00;0.00;;;;;20.56;51.03;100758.53;5047828;28;46607;-73
2022/06/30 00:35:44;;;;;;;;;0.00;0.00;;;;;20.58;51.10;100757.59;5031604;28;45173;-71
2022/06/30 00:38:10;;;;;;;;;0.00;0.00;;;;;20.42;51.20;100748.75;5030066;28;45255;-71
2022/06/30 00:40:41;;;;;;;;;0.00;0.00;;;;;20.18;50.56;100719.28;5032869;28;45123;-73
2022/06/30 00:43:07;;;;;;;;;0.00;0.00;;;;;20.37;50.84;100764.22;5030473;28;46362;-70
2022/06/30 00:45:33;;;;;;;;;0.00;0.00;;;;;20.14;50.36;100737.41;5031070;28;45109;-72
2022/06/30 00:48:01;;;;;;;;;0.00;0.00;;;;;20.22;50.10;100749.03;5027564;28;45299;-70
2022/06/30 00:50:27;;;;;;;;;1.00;1.00;;;;;20.09;50.17;100727.53;5029823;28;45063;-72
2022/06/30 00:52:54;;;;;;;;;0.00;0.00;;;;;20.03;50.58;100732.13;5030626;28;45130;-73
2022/06/30 00:55:19;;;;;;;;;1.67;0.67;;;;;20.35;50.60;100759.75;5035772;28;45218;-70
2022/06/30 00:57:46;;;;;;;;;0.67;0.67;;;;;20.31;50.48;100768.81;5032510;28;45054;-73
2022/06/30 01:00:14;;;;;;;;;0.00;0.00;;;;;20.29;50.62;100768.84;5033254;28;45125;-72
2022/06/30 01:02:40;;;;;;;;;0.00;0.00;;;;;20.14;51.03;100740.09;5025641;28;45713;-71
2022/06/30 01:05:07;;;;;;;;;0.33;0.33;;;;;20.21;51.16;100736.41;5034031;28;45233;-71
2022/06/30 01:07:34;;;;;;;;;1.00;0.00;;;;;20.12;51.18;100733.81;5028905;28;45371;-71
2022/06/30 01:12:47;;;;;;;;;0.33;0.33;;;;;20.13;52.00;100738.34;5031932;28;45288;-72
2022/06/30 01:15:15;;;;;;;;;0.00;0.00;;;;;20.13;52.03;100749.19;5031006;28;45343;-72
2022/06/30 01:17:42;;;;;;;;;0.00;0.00;;;;;20.03;52.21;100737.56;5028938;28;45107;-71
2022/06/30 01:20:08;;;;;;;;;0.67;0.67;;;;;19.68;52.24;100675.59;5029197;28;44997;-71
2022/06/30 01:22:35;;;;;;;;;2.00;2.00;;;;;19.85;52.17;100714.28;5031913;28;47610;-73
2022/06/30 01:25:00;;;;;;;;;5.00;3.00;;;;;19.88;52.20;100714.25;5029978;28;45271;-73
2022/06/30 01:27:26;;;;;;;;;0.00;0.00;;;;;19.68;52.53;100686.44;5032748;28;45078;-72
2022/06/30 01:29:52;;;;;;;;;1.00;1.00;;;;;20.06;52.35;100756.50;5033079;28;45109;-71
2022/06/30 01:32:18;;;;;;;;;0.33;0.33;;;;;19.79;52.00;100703.50;5032893;28;45172;-69
2022/06/30 01:34:43;;;;;;;;;1.00;1.00;;;;;19.93;52.03;100734.97;5029218;28;45074;-71
2022/06/30 01:37:09;;;;;;;;;2.33;0.67;;;;;19.52;52.06;100683.03;5032603;28;45150;-71
2022/06/30 01:39:34;;;;;;;;;0.00;0.00;;;;;19.88;52.15;100754.00;5033405;28;45420;-71
2022/06/30 01:42:00;;;;;;;;;2.00;0.33;;;;;19.75;52.20;100769.53;5032874;28;45082;-72
2022/06/30 01:44:25;;;;;;;;;0.33;0.00;;;;;19.19;52.85;100658.09;5031911;28;45117;-71
2022/06/30 01:46:51;;;;;;;;;1.00;1.00;;;;;19.42;53.21;100719.25;5029672;28;45259;-70
2022/06/30 01:49:16;;;;;;;;;2.00;2.00;;;;;19.49;53.52;100748.97;5032852;28;45181;-73
2022/06/30 01:51:42;;;;;;;;;1.67;1.00;;;;;19.52;54.00;100759.78;5031201;28;46276;-71
2022/06/30 01:54:08;;;;;;;;;1.00;1.00;;;;;19.31;54.30;100741.03;5031270;28;45186;-72
2022/06/30 01:56:35;;;;;;;;;0.00;0.00;;;;;19.34;54.39;100763.56;5031051;28;44934;-72
2022/06/30 01:59:00;;;;;;;;;0.00;0.00;;;;;19.27;54.60;100752.81;5033109;28;45085;-70
2022/06/30 02:01:25;;;;;;;;;1.33;1.00;;;;;19.09;55.02;100715.94;5031450;28;45417;-71
2022/06/30 02:03:51;;;;;;;;;1.00;1.00;;;;;19.11;55.27;100734.00;5031275;28;45076;-72
2022/06/30 02:06:16;;;;;;;;;1.00;1.00;;;;;19.30;55.49;100771.75;5029706;28;45163;-72
2022/06/30 02:08:42;;;;;;;;;3.33;1.67;;;;;19.29;55.28;100784.41;5028801;28;45200;-71
2022/06/30 02:11:07;;;;;;;;;2.33;2.33;;;;;18.95;55.82;100719.69;5028652;28;45578;-72
2022/06/30 02:13:32;;;;;;;;;1.33;1.33;;;;;19.22;55.81;100771.84;5029441;28;45175;-71
2022/06/30 02:15:57;;;;;;;;;2.00;1.00;;;;;19.02;56.11;100750.31;5027074;28;45077;-71
2022/06/30 02:18:24;;;;;;;;;2.33;2.33;;;;;18.91;56.03;100707.09;5029463;28;45202;-71
2022/06/30 02:20:49;;;;;;;;;3.00;1.67;;;;;19.17;55.96;100748.38;5028868;28;45220;-71
2022/06/30 02:23:14;;;;;;;;;1.00;1.00;;;;;19.22;55.55;100752.88;5030706;28;45082;-72
2022/06/30 02:25:40;;;;;;;;;2.00;2.00;;;;;19.23;55.83;100749.22;5028858;28;45183;-72
2022/06/30 02:28:05;;;;;;;;;2.00;2.00;;;;;19.28;55.80;100736.53;5030793;28;45290;-70
2022/06/30 02:30:31;;;;;;;;;2.33;2.33;;;;;19.08;55.88;100706.06;5029605;28;45059;-73
2022/06/30 02:32:58;;;;;;;;;3.00;2.00;;;;;19.15;55.89;100724.03;5029385;28;45161;-73
2022/06/30 02:35:24;;;;;;;;;1.67;1.00;;;;;19.21;55.45;100751.06;5030879;28;46174;-70
2022/06/30 02:37:49;;;;;;;;;0.33;0.33;;;;;19.13;55.42;100725.84;5029743;28;45798;-73
2022/06/30 02:40:15;;;;;;;;;1.00;1.00;;;;;19.22;55.33;100741.13;5031159;28;45175;-71
2022/06/30 02:42:40;;;;;;;;;1.00;1.00;;;;;19.09;55.16;100733.13;5029284;28;45122;-71
2022/06/30 02:45:06;;;;;;;;;2.00;2.00;;;;;18.89;55.25;100694.47;5030203;28;45174;-72
2022/06/30 02:47:37;;;;;;;;;1.00;1.00;;;;;19.01;55.38;100720.56;5025605;28;45027;-71
2022/06/30 02:50:05;;;;;;;;;1.00;1.00;;;;;19.19;55.31;100752.91;5029964;28;46267;-71
2022/06/30 02:52:31;;;;;;;;;2.33;2.00;;;;;19.20;55.08;100757.38;5029046;28;44921;-71
2022/06/30 02:54:57;;;;;;;;;1.67;1.67;;;;;19.15;54.54;100757.44;5028292;28;45093;-70
2022/06/30 02:57:22;;;;;;;;;2.00;2.00;;;;;19.14;55.03;100763.75;5024814;28;45278;-71
2022/06/30 02:59:48;;;;;;;;;1.67;1.67;;;;;19.10;54.77;100748.44;5027639;28;45546;-70
2022/06/30 03:02:13;;;;;;;;;2.33;1.67;;;;;19.24;54.90;100756.47;5029484;28;45192;-72
2022/06/30 03:04:38;;;;;;;;;3.00;2.00;;;;;19.27;54.93;100758.22;5029096;28;45678;-71
2022/06/30 03:07:05;;;;;;;;;1.67;1.33;;;;;19.30;54.61;100747.34;5028285;28;45183;-71
2022/06/30 03:09:30;;;;;;;;;3.00;2.00;;;;;19.28;54.53;100750.06;5030379;28;45123;-71
2022/06/30 03:11:55;;;;;;;;;4.00;3.00;;;;;19.41;54.24;100763.53;5029269;28;45013;-72
2022/06/30 03:14:21;;;;;;;;;1.67;1.00;;;;;19.41;54.06;100774.38;5030360;28;45366;-71
2022/06/30 03:16:46;;;;;;;;;1.00;1.00;;;;;19.27;54.33;100769.97;5027153;28;45123;-70
2022/06/30 03:19:11;;;;;;;;;1.00;1.00;;;;;19.07;54.41;100736.75;5028350;28;46006;-70
2022/06/30 03:21:37;;;;;;;;;2.00;2.00;;;;;19.19;54.24;100755.59;5028368;28;45240;-72
2022/06/30 03:24:03;;;;;;;;;2.00;1.00;;;;;19.07;54.33;100736.75;5028319;28;45482;-72
2022/06/30 03:26:28;;;;;;;;;2.67;1.00;;;;;19.09;54.23;100743.03;5029263;28;45351;-72
2022/06/30 03:28:54;;;;;;;;;3.00;1.33;;;;;19.14;54.33;100733.09;5028144;28;45272;-71
2022/06/30 03:31:19;;;;;;;;;1.67;1.67;;;;;18.80;54.36;100673.78;5030851;28;45049;-70
2022/06/30 03:33:44;;;;;;;;;2.00;2.00;;;;;19.06;54.47;100711.47;5030361;28;45128;-71
2022/06/30 03:36:10;;;;;;;;;2.00;2.00;;;;;19.12;54.55;100732.19;5029876;28;45039;-71
2022/06/30 03:38:35;;;;;;;;;3.00;2.00;;;;;19.00;54.77;100756.66;5030050;28;45588;-71
2022/06/30 03:41:00;;;;;;;;;1.00;1.00;;;;;18.94;54.70;100736.84;5029033;28;45139;-71
2022/06/30 03:43:26;;;;;;;;;3.00;1.33;;;;;19.11;54.71;100755.66;5031934;28;45113;-72
2022/06/30 03:45:51;;;;;;;;;1.67;1.00;;;;;19.06;54.46;100745.78;5028331;28;44923;-70
2022/06/30 03:48:17;;;;;;;;;3.33;2.00;;;;;18.94;55.16;100761.22;5030095;28;45585;-70
2022/06/30 03:50:42;;;;;;;;;2.67;0.67;;;;;18.86;55.05;100760.38;5028044;28;45212;-71
2022/06/30 03:53:07;;;;;;;;;1.00;1.00;;;;;19.07;54.86;100770.16;5028641;28;45189;-70
2022/06/30 03:55:33;;;;;;;;;2.00;2.00;;;;;18.88;54.78;100738.72;5028840;28;45190;-72
2022/06/30 03:58:00;;;;;;;;;2.00;2.00;;;;;18.94;54.58;100763.94;5028167;28;45208;-70
2022/06/30 04:00:25;;;;;;;;;3.00;2.00;;;;;18.88;54.78;100742.31;5032509;28;45158;-70
2022/06/30 04:02:51;;;;;;;;;3.33;1.33;;;;;18.93;54.48;100745.88;5029798;28;45250;-72
2022/06/30 04:05:16;;;;;;;;;1.00;1.00;;;;;19.17;54.60;100776.34;5031216;28;45278;-71
2022/06/30 04:07:43;;;;;;;;;0.67;0.33;;;;;19.07;54.33;100756.63;5033783;28;44988;-70
2022/06/30 04:10:12;;;;;;;;;1.33;1.33;;;;;19.18;54.83;100782.69;5029269;28;45020;-71
2022/06/30 04:12:38;;;;;;;;;1.00;1.00;;;;;19.09;55.20;100778.22;5034162;28;44942;-72
2022/06/30 04:15:06;;;;;;;;;4.00;2.33;;;;;18.83;55.84;100733.34;5029060;28;45301;-71
2022/06/30 04:17:34;;;;;;;;;1.00;1.00;;;;;19.21;56.25;100793.50;5025829;28;47478;-71
2022/06/30 04:20:01;;;;;;;;;4.33;3.33;;;;;19.08;57.36;100781.88;5031747;28;45251;-69
2022/06/30 04:22:26;;;;;;;;;3.00;3.00;;;;;18.80;57.05;100736.03;5030287;28;45195;-71
2022/06/30 04:24:52;;;;;;;;;2.67;1.33;;;;;18.80;57.51;100768.50;5031109;28;46261;-70
2022/06/30 04:27:17;;;;;;;;;3.33;1.00;;;;;18.60;57.58;100741.59;5031467;28;45499;-71
2022/06/30 04:29:43;;;;;;;;;3.00;2.00;;;;;18.84;58.69;100781.16;5030011;28;45152;-71
2022/06/30 04:34:52;;;;;;;;;2.00;2.00;;;;;18.92;58.44;100806.38;5024823;28;45185;-70
2022/06/30 04:37:18;;;;;;;;;5.67;4.00;;;;;18.83;58.59;100789.25;5030824;28;45237;-71
2022/06/30 04:39:43;;;;;;;;;2.33;2.33;;;;;18.70;58.61;100781.19;5029553;28;45180;-71
2022/06/30 04:42:08;;;;;;;;;2.00;2.00;;;;;18.84;59.25;100812.72;5033956;28;44925;-73
2022/06/30 04:44:34;;;;;;;;;6.00;3.00;;;;;18.59;59.67;100785.78;5030647;28;45247;-71
2022/06/30 04:46:59;;;;;;;;;3.33;2.00;;;;;18.76;59.77;100807.34;5032044;28;45957;-71
2022/06/30 04:49:24;;;;;;;;;4.00;4.00;;;;;18.60;60.78;100779.47;5033530;28;52881;-70
2022/06/30 04:51:50;;;;;;;;;2.33;1.67;;;;;18.74;60.17;100796.53;5032754;28;45168;-70
2022/06/30 04:54:16;;;;;;;;;5.00;3.33;;;;;18.88;61.08;100795.56;5030665;28;45251;-71
2022/06/30 04:56:42;;;;;;;;;4.00;2.00;;;;;18.81;60.84;100782.94;5031628;28;45721;-73
2022/06/30 04:59:07;;;;;;;;;2.00;1.00;;;;;18.87;60.44;100782.94;5029802;28;45396;-72
2022/06/30 05:01:32;;;;;;;;;2.00;2.00;;;;;19.05;59.95;100790.91;5030781;28;44974;-71
2022/06/30 05:03:58;;;;;;;;;4.00;2.00;;;;;18.74;59.52;100722.53;5031552;28;45125;-70
2022/06/30 05:06:23;;;;;;;;;4.00;4.00;;;;;19.05;59.95;100754.81;5030187;28;52657;-70
2022/06/30 05:08:48;;;;;;;;;4.33;3.67;;;;;18.84;59.75;100721.59;5029659;28;45178;-73
2022/06/30 05:11:14;;;;;;;;;7.00;4.00;;;;;19.07;58.74;100755.69;5028381;28;45437;-71
2022/06/30 05:13:40;;;;;;;;;7.00;7.00;;;;;19.13;57.87;100744.81;5030660;28;45203;-72
2022/06/30 05:16:05;;;;;;;;;6.67;4.00;;;;;19.12;58.37;100772.78;5031287;28;45379;-73
2022/06/30 05:18:31;;;;;;;;;4.33;4.33;;;;;18.92;59.28;100754.00;5030811;28;45354;-71
2022/06/30 05:20:57;;;;;;;;;7.00;7.00;;;;;18.82;59.96;100747.72;5031465;28;46024;-71
2022/06/30 05:23:22;;;;;;;;;2.00;2.00;;;;;19.03;59.47;100779.19;5025918;28;45599;-72
2022/06/30 05:28:33;;;;;;;;;4.00;2.67;;;;;18.99;58.80;100762.97;5027175;28;44917;-71
2022/06/30 05:30:58;;;;;;;;;9.00;3.33;;;;;18.95;58.99;100763.00;5031669;28;45285;-72
2022/06/30 05:33:24;;;;;;;;;4.67;3.67;;;;;19.08;59.55;100800.84;5031831;28;45084;-72
2022/06/30 05:35:51;;;;;;;;;3.33;3.33;;;;;18.93;58.58;100793.72;5024643;28;45462;-72
2022/06/30 05:38:18;;;;;;;;;5.67;3.00;;;;;18.84;58.92;100780.25;5029750;28;45223;-70
2022/06/30 05:40:46;;;;;;;;;6.00;3.33;;;;;19.00;58.93;100797.28;5020973;28;45498;-71
2022/06/30 05:43:16;;;;;;;;;5.00;3.00;;;;;19.08;59.20;100806.25;5029976;28;45235;-71
2022/06/30 05:45:42;;;;;;;;;6.67;5.00;;;;;19.13;59.58;100790.84;5027539;28;45492;-72
2022/06/30 05:48:08;;;;;;;;;2.67;2.67;;;;;19.19;58.14;100806.13;5031258;28;45208;-72
2022/06/30 05:50:33;;;;;;;;;1.00;1.00;;;;;18.90;58.04;100764.84;5031561;28;45144;-73
2022/06/30 05:52:59;;;;;;;;;3.00;2.00;;;;;19.08;58.27;100806.25;5018462;28;45561;-72
2022/06/30 05:55:24;;;;;;;;;9.33;6.00;;;;;19.03;59.45;100799.97;5029202;28;46104;-72
2022/06/30 05:57:52;;;;;;;;;9.00;5.33;;;;;19.11;59.06;100817.94;5029877;28;45280;-72
2022/06/30 06:00:20;;;;;;;;;5.00;5.00;;;;;19.05;58.28;100790.03;5017223;28;45550;-76
2022/06/30 06:02:45;;;;;;;;;4.67;4.67;;;;;19.13;58.82;100790.84;5008166;28;45784;-73
2022/06/30 06:05:11;;;;;;;;;18.25;18.25;;;;;19.14;57.95;100790.84;5028249;28;45218;-72
2022/06/30 06:07:36;;;;;;;;;16.00;12.50;;;;;19.25;58.22;100795.25;5023850;28;45633;-73
2022/06/30 06:10:01;;;;;;;;;11.33;7.00;;;;;19.34;57.95;100797.91;5025480;28;45608;-73
2022/06/30 06:12:27;;;;;;;;;5.00;5.00;;;;;19.30;57.83;100801.53;5014107;28;45406;-73
2022/06/30 06:14:52;;;;;;;;;10.67;6.67;;;;;19.29;58.31;100807.88;5013766;28;45399;-72
2022/06/30 06:17:17;;;;;;;;;5.67;5.67;;;;;18.91;59.06;100745.00;5012017;28;45697;-72
2022/06/30 06:19:43;;;;;;;;;9.33;7.00;;;;;19.33;59.15;100791.56;5018148;28;45402;-73
2022/06/30 06:22:08;;;;;;;;;5.67;4.00;;;;;19.40;60.17;100803.28;5028322;28;45129;-71
2022/06/30 06:24:33;;;;;;;;;9.00;5.33;;;;;19.31;60.18;100806.94;5025641;28;45802;-71
2022/06/30 06:26:59;;;;;;;;;4.00;3.00;;;;;19.23;60.02;100799.81;5022389;28;45331;-70
2022/06/30 06:29:24;;;;;;;;;4.33;4.00;;;;;19.23;60.08;100781.72;5017293;28;45327;-71
2022/06/30 06:31:49;;;;;;;;;4.00;3.67;;;;;19.09;59.24;100752.06;5013108;28;45530;-72
2022/06/30 06:34:15;;;;;;;;;10.67;5.00;;;;;19.22;59.70;100789.88;5009908;28;47781;-71
2022/06/30 06:36:40;;;;;;;;;4.00;4.00;;;;;19.32;60.17;100800.63;5013357;28;45557;-71
2022/06/30 06:39:06;;;;;;;;;12.25;10.50;;;;;19.10;60.26;100764.69;5013122;28;45260;-71
2022/06/30 06:41:32;;;;;;;;;7.00;4.33;;;;;19.13;59.52;100769.19;5013258;28;45494;-72
2022/06/30 06:43:57;;;;;;;;;5.00;5.00;;;;;19.36;60.58;100803.31;5011705;28;47948;-73
2022/06/30 06:46:26;;;;;;;;;4.33;4.00;;;;;19.39;60.99;100798.75;5012710;28;45308;-72
2022/06/30 06:48:58;;;;;;;;;5.00;3.00;;;;;19.43;60.03;100810.47;5006651;28;45526;-72
2022/06/30 06:51:23;;;;;;;;;10.67;5.33;;;;;19.24;60.89;100793.50;5012948;28;45325;-73
2022/06/30 06:53:48;;;;;;;;;6.67;6.33;;;;;19.39;60.27;100824.97;5012209;28;46470;-73
2022/06/30 06:56:14;;;;;;;;;9.33;7.00;;;;;19.12;59.93;100786.34;5012977;28;45670;-72
2022/06/30 06:58:39;;;;;;;;;8.33;7.33;;;;;19.19;60.72;100828.72;5013046;28;45375;-73
2022/06/30 07:01:05;;;;;;;;;2.50;2.00;;;;;19.22;59.51;100830.50;5006973;28;45308;-74
2022/06/30 07:03:32;;;;;;;;;9.33;8.00;;;;;18.58;60.20;100749.72;5008821;28;46378;-72
2022/06/30 07:05:57;;;;;;;;;12.33;9.67;;;;;19.22;60.33;100857.59;5012205;28;45549;-72
2022/06/30 07:08:23;;;;;;;;;7.33;6.33;;;;;18.96;59.64;100797.31;5012580;28;45495;-72
2022/06/30 07:10:48;;;;;;;;;9.25;8.75;;;;;19.24;60.13;100848.56;5013067;28;45435;-71
2022/06/30 07:13:14;;;;;;;;;6.33;6.33;;;;;19.22;60.03;100847.69;5012647;28;45493;-73
2022/06/30 07:15:39;;;;;;;;;7.67;5.67;;;;;19.29;59.90;100862.97;5013005;28;45659;-71
2022/06/30 07:18:04;;;;;;;;;6.00;6.00;;;;;18.90;60.50;100805.47;5013168;28;45498;-74
2022/06/30 07:20:30;;;;;;;;;5.00;3.33;;;;;19.11;60.19;100845.03;5007136;28;45462;-74
2022/06/30 07:22:55;;;;;;;;;8.33;6.00;;;;;18.99;61.10;100818.06;5008778;28;45810;-72
2022/06/30 07:25:20;;;;;;;;;5.33;5.33;;;;;19.12;61.40;100843.22;5011958;28;45423;-73
2022/06/30 07:27:46;;;;;;;;;6.00;6.00;;;;;19.23;61.74;100859.41;5010875;28;45471;-72
2022/06/30 07:30:11;;;;;;;;;7.67;4.00;;;;;18.99;61.30;100823.47;5012176;28;45616;-72
2022/06/30 07:32:37;;;;;;;;;6.33;5.00;;;;;19.14;61.85;100858.56;5012293;28;46509;-73
2022/06/30 07:35:04;;;;;;;;;5.67;5.33;;;;;19.14;62.21;100860.38;5015958;28;45688;-72
2022/06/30 07:37:30;;;;;;;;;8.67;7.00;;;;;19.14;62.07;100860.38;5015357;28;45492;-72
2022/06/30 07:39:55;;;;;;;;;5.00;4.33;;;;;19.07;62.05;100851.41;5011673;28;45462;-73
2022/06/30 07:42:20;;;;;;;;;6.00;3.00;;;;;18.90;61.05;100816.28;5015117;28;46309;-73
2022/06/30 07:44:46;;;;;;;;;7.33;5.33;;;;;19.04;60.95;100831.53;5015397;28;45475;-74
2022/06/30 07:47:11;;;;;;;;;7.00;4.67;;;;;18.96;61.67;100835.22;5014064;28;45574;-74
2022/06/30 07:49:38;;;;;;;;;5.00;5.00;;;;;18.71;61.75;100796.53;5014106;28;45355;-74
2022/06/30 07:52:04;;;;;;;;;7.33;7.33;;;;;19.02;61.93;100842.38;5015654;28;45510;-73
2022/06/30 07:54:29;;;;;;;;;6.00;4.67;;;;;18.79;61.68;100799.19;5004986;28;45513;-74
2022/06/30 07:56:55;;;;;;;;;8.75;6.75;;;;;18.98;61.51;100840.63;5012001;28;45585;-75
2022/06/30 07:59:20;;;;;;;;;9.67;5.33;;;;;18.93;61.60;100839.75;5011443;28;45703;-72
2022/06/30 08:01:45;;;;;;;;;11.33;9.00;;;;;19.02;60.99;100853.22;5032035;28;48296;-74
2022/06/30 08:04:11;;;;;;;;;6.00;4.33;;;;;18.45;61.61;100763.34;5016880;28;45291;-73
2022/06/30 08:06:37;;;;;;;;;5.00;4.00;;;;;18.96;61.59;100850.56;5016529;28;45313;-73
2022/06/30 08:09:03;;;;;;;;;5.67;5.67;;;;;18.91;61.07;100837.06;5017122;28;45734;-72
2022/06/30 08:11:28;;;;;;;;;6.00;4.33;;;;;18.95;61.01;100840.63;5016064;28;45424;-74
2022/06/30 08:13:54;;;;;;;;;3.33;3.33;;;;;18.82;61.55;100823.53;5015231;28;45388;-75
2022/06/30 08:16:19;;;;;;;;;6.33;4.00;;;;;18.70;61.73;100804.69;5015777;28;45532;-72
2022/06/30 08:18:44;;;;;;;;;7.67;5.67;;;;;18.84;62.05;100848.84;5015278;28;45378;-73
2022/06/30 08:21:10;;;;;;;;;6.00;6.00;;;;;18.83;62.33;100855.16;5015105;28;46235;-72
2022/06/30 08:23:36;;;;;;;;;4.33;4.33;;;;;18.36;62.37;100766.97;5014731;28;45786;-74
2022/06/30 08:26:02;;;;;;;;;3.33;3.33;;;;;18.56;62.66;100821.91;5013724;28;45468;-71
2022/06/30 08:28:28;;;;;;;;;6.00;4.67;;;;;18.45;62.68;100809.34;5012471;28;45303;-74
2022/06/30 08:30:53;;;;;;;;;3.33;3.33;;;;;18.47;62.53;100805.69;5007202;28;45431;-73
2022/06/30 08:33:18;;;;;;;;;3.00;3.00;;;;;18.61;62.89;100838.13;5014600;28;45465;-72
2022/06/30 08:35:44;;;;;;;;;4.67;3.00;;;;;18.56;62.49;100837.22;5014617;28;45738;-74
2022/06/30 08:38:09;;;;;;;;;6.00;3.33;;;;;18.52;61.96;100832.72;5015335;28;45434;-72
2022/06/30 08:43:24;;;;;;;;;5.33;3.00;;;;;18.49;62.68;100839.03;5014724;28;45407;-72
2022/06/30 08:45:51;;;;;;;;;3.00;2.00;;;;;18.05;60.90;100773.44;5013318;28;45442;-75
2022/06/30 08:48:17;;;;;;;;;2.33;1.67;;;;;18.35;60.21;100830.13;5014578;28;45504;-74
2022/06/30 08:50:43;;;;;;;;;4.33;2.00;;;;;17.86;60.41;100737.41;5014408;28;46084;-72
2022/06/30 08:53:09;;;;;;;;;7.75;6.50;;;;;18.29;61.51;100806.69;5013049;28;45447;-73
2022/06/30 08:55:36;;;;;;;;;10.25;9.00;;;;;18.52;62.01;100833.63;5014674;28;45472;-75
2022/06/30 08:58:05;;;;;;;;;5.67;4.00;;;;;17.97;61.03;100726.63;5015084;28;45622;-71
2022/06/30 09:00:32;;;;;;;;;3.33;3.00;;;;;18.32;59.80;100781.44;5014635;28;45490;-72
2022/06/30 09:02:57;;;;;;;;;3.00;2.33;;;;;18.55;60.52;100828.19;5012796;28;45729;-72
2022/06/30 09:05:23;;;;;;;;;3.00;2.33;;;;;18.56;59.61;100824.59;5013316;28;45515;-73
2022/06/30 09:07:48;;;;;;;;;2.67;2.67;;;;;18.52;60.23;100809.28;5015328;28;45543;-72
2022/06/30 09:10:14;;;;;;;;;3.00;3.00;;;;;18.52;59.88;100787.63;5014833;28;45510;-74
2022/06/30 09:12:41;;;;;;;;;2.00;2.00;;;;;18.61;60.00;100792.09;5014766;28;45529;-73
2022/06/30 09:15:07;;;;;;;;;3.00;3.00;;;;;18.42;59.72;100773.25;5014192;28;45476;-72
2022/06/30 09:17:32;;;;;;;;;1.67;1.67;;;;;18.16;60.07;100713.88;5014728;28;45433;-73
2022/06/30 09:20:00;;;;;;;;;2.00;2.00;;;;;18.68;59.73;100801.09;5007456;28;45508;-72
2022/06/30 09:22:31;;;;;;;;;3.33;2.00;;;;;18.62;60.83;100811.94;5013972;28;45494;-73
2022/06/30 09:25:01;;;;;;;;;6.00;4.00;;;;;18.60;59.91;100815.53;5012479;28;45598;-72
2022/06/30 09:27:29;;;;;;;;;5.00;3.00;;;;;18.54;60.14;100806.56;5029633;28;45752;-73
2022/06/30 09:30:00;;;;;;;;;6.67;3.67;;;;;18.57;60.56;100804.72;5013996;28;45526;-74
2022/06/30 09:32:25;;;;;;;;;5.67;3.67;;;;;18.43;60.46;100785.00;5020334;28;45423;-75
2022/06/30 09:34:52;;;;;;;;;4.33;4.00;;;;;18.62;60.17;100830.88;5019430;28;45558;-73
2022/06/30 09:37:23;;;;;;;;;7.33;3.00;;;;;18.32;60.42;100790.44;5033017;28;45524;-75
2022/06/30 09:39:54;;;;;;;;;5.00;3.33;;;;;18.48;60.32;100821.03;5019110;28;45952;-74
2022/06/30 09:42:37;;;;;;;;;4.00;4.00;;;;;18.54;60.56;100844.44;5015126;28;45466;-73
2022/06/30 09:45:04;;;;;;;;;8.33;6.67;;;;;18.53;61.45;100832.72;5014446;28;45423;-75
2022/06/30 09:47:30;;;;;;;;;7.67;4.00;;;;;18.62;61.14;100844.41;5014489;28;45674;-72
2022/06/30 09:50:01;;;;;;;;;15.25;8.50;;;;;18.60;62.05;100839.00;5014049;28;45638;-75
2022/06/30 09:52:27;;;;;;;;;4.67;4.67;;;;;18.54;62.48;100829.09;5010819;28;45510;-73
2022/06/30 09:54:57;;;;;;;;;7.67;4.67;;;;;18.58;62.22;100839.00;5013820;28;45445;-74
2022/06/30 09:57:25;;;;;;;;;9.00;9.00;;;;;18.60;62.38;100836.28;5013605;28;45449;-73
2022/06/30 10:00:08;;;;;;;;;6.00;4.33;;;;;18.56;61.64;100843.53;5013166;28;45528;-73
2022/06/30 10:02:35;;;;;;;;;6.33;6.33;;;;;18.53;61.76;100840.84;5013628;28;45319;-73
2022/06/30 10:05:01;;;;;;;;;6.33;4.00;;;;;18.46;61.89;100839.06;5013426;28;45463;-73
2022/06/30 10:07:27;;;;;;;;;7.67;3.33;;;;;18.34;62.35;100812.06;5013027;28;45468;-72
2022/06/30 10:09:53;;;;;;;;;4.00;4.00;;;;;18.33;61.78;100812.97;5008853;28;46335;-72
2022/06/30 10:12:21;;;;;;;;;5.00;4.33;;;;;18.11;61.27;100775.19;5013319;28;45561;-72
2022/06/30 10:14:49;;;;;;;;;9.67;7.00;;;;;18.54;61.89;100848.03;5009338;28;45574;-74
2022/06/30 10:17:19;;;;;;;;;4.00;4.00;;;;;18.52;61.59;100848.97;5013296;28;45525;-74
2022/06/30 10:19:46;;;;;;;;;6.33;5.33;;;;;18.53;61.61;100870.59;5011118;28;48161;-73
2022/06/30 10:22:12;;;;;;;;;7.33;5.00;;;;;18.47;61.66;100853.50;5012961;28;45544;-72
2022/06/30 10:24:41;;;;;;;;;6.33;6.33;;;;;18.46;61.64;100865.22;5013159;28;45269;-72
2022/06/30 10:27:14;;;;;;;;;9.33;7.33;;;;;18.45;61.27;100874.25;5008080;28;45735;-74
2022/06/30 10:29:45;;;;;;;;;3.00;2.67;;;;;18.42;60.85;100883.28;5007371;28;45546;-73
2022/06/30 10:32:25;;;;;;;;;7.00;5.00;;;;;18.38;60.96;100893.22;5012110;28;45536;-73
2022/06/30 10:35:14;;;;;;;;;8.00;6.00;;;;;18.34;62.09;100893.22;5012831;28;45280;-72
2022/06/30 10:37:54;;;;;;;;;4.25;4.25;;;;;18.31;61.89;100894.13;5012696;28;45327;-72
2022/06/30 10:40:38;;;;;;;;;4.00;4.00;;;;;18.30;62.89;100902.25;5013337;28;46575;-73
2022/06/30 10:43:05;;;;;;;;;10.00;5.33;;;;;18.26;62.79;100909.47;5007440;28;45257;-77
2022/06/30 10:45:30;;;;;;;;;5.00;3.33;;;;;18.27;63.04;100900.47;5012436;28;45419;-72
2022/06/30 10:48:01;;;;;;;;;5.00;5.00;;;;;18.06;62.73;100866.25;5006115;28;46786;-75
2022/06/30 10:50:36;;;;;;;;;8.50;8.00;;;;;18.15;63.29;100887.88;5006881;28;46014;-75
2022/06/30 10:53:07;;;;;;;;;7.25;6.00;;;;;17.05;62.80;100705.22;5011773;28;45570;-73
2022/06/30 10:55:50;;;;;;;;;7.25;7.25;;;;;18.16;62.33;100908.59;5010320;28;45455;-72
2022/06/30 10:58:17;;;;;;;;;4.67;3.33;;;;;18.01;62.86;100884.28;5010790;28;45561;-73
2022/06/30 11:00:45;;;;;;;;;3.67;3.67;;;;;18.00;63.04;100883.41;5012370;28;45454;-73
2022/06/30 11:03:29;;;;;;;;;4.33;4.33;;;;;18.17;62.37;100914.91;5009757;28;45471;-73
2022/06/30 11:05:55;;;;;;;;;10.25;6.00;;;;;18.05;62.88;100907.72;5010226;28;45649;-74
2022/06/30 11:08:36;;;;;;;;;4.33;3.33;;;;;18.20;62.69;100914.91;5015020;28;45442;-74
2022/06/30 11:11:28;;;;;;;;;6.33;5.33;;;;;17.94;63.00;100878.00;5022475;28;45777;-73
2022/06/30 11:14:00;;;;;;;;;2.67;2.67;;;;;17.93;62.13;100859.09;5011696;28;45353;-74
2022/06/30 11:16:26;;;;;;;;;7.00;7.00;;;;;17.81;63.50;100817.63;5021472;28;45257;-73
2022/06/30 11:18:51;;;;;;;;;5.33;5.33;;;;;18.15;62.94;100871.66;5018801;28;45591;-71
2022/06/30 11:21:17;;;;;;;;;16.00;11.50;;;;;17.93;61.75;100829.34;5017149;28;45453;-74
2022/06/30 11:23:45;;;;;;;;;23.25;22.25;;;;;18.12;62.20;100855.44;5016068;28;45606;-73
2022/06/30 11:28:58;;;;;;;;;6.00;4.00;;;;;18.46;61.11;100932.84;5016512;28;45592;-73
2022/06/30 11:31:25;;;;;;;;;5.25;5.25;;;;;18.42;61.32;100927.44;5015794;28;45876;-73
2022/06/30 11:33:52;;;;;;;;;4.25;3.00;;;;;18.43;61.90;100906.72;5015803;28;45581;-73
2022/06/30 11:36:18;;;;;;;;;4.00;4.00;;;;;17.91;60.67;100809.53;5015811;28;45621;-73